Gaschem Jade — ELSU9 — position and weather

sailwx.info

Track history (hours):
 
Tides and Currents Weather Stations Pressure Air Temp Water Temp Dewpoint Dewpoint Depression Visibility Wind Speed Wind Dir Waves Ship Positions

Gaschem Jade

Last reported at 2014-Sep-01 19:33 UTC. Time now 2014-Sep-01 23:48 UTC.
Position N 36°57' E 002°48'.

Length 113.2 m; beam 15.9 m; draft 6.1 m.

Type: Ship. MMSI: 636090168.

Date/timePositionNaut miles runAvg speedWind from/ knotsBaromVisibWave heightAir tempDewpointWater temp
2014-Sep-01 19:33N 36°57' E 002°48'25011.8
2014-Aug-31 22:25N 37°16' E 008°00'4611.9
2014-Aug-31 18:33N 37°23' E 008°57'3811.5
2014-Aug-31 15:13N 37°34' E 009°43'811.6
2014-Aug-31 14:33N 37°36' E 009°52'1211.7
2014-Aug-31 13:33N 37°38' E 010°07'1111.1
2014-Aug-31 12:33N 37°33' E 010°19'1212.3
2014-Aug-31 11:33N 37°24' E 010°30'1111.5
2014-Aug-31 10:33N 37°13' E 010°32'  
2014-Aug-28 22:33N 37°21' E 009°03'1212.5
2014-Aug-28 21:33N 37°18' E 008°47'101 3.2
2014-Aug-27 13:33N 37°05' E 006°42'15611.9
2014-Aug-27 00:32N 37°07' E 003°27'1812.7
2014-Aug-26 23:08N 37°02' E 003°05'712.2
2014-Aug-26 22:33N 36°60' E 002°57'1312.6
2014-Aug-26 21:33N 36°56' E 002°42'1212.5
2014-Aug-26 20:33N 36°53' E 002°27'1313.3
2014-Aug-26 19:33N 36°50' E 002°11'2013.3
2014-Aug-26 18:04N 36°47' E 001°46'713.1
2014-Aug-26 17:33N 36°46' E 001°38'1313.0
2014-Aug-26 16:33N 36°44' E 001°22'5112.5
2014-Aug-26 12:29N 36°36' E 000°19'  
Track history (hours):
 
Tides and Currents Weather Stations Pressure Air Temp Water Temp Dewpoint Dewpoint Depression Visibility Wind Speed Wind Dir Waves Ship Positions

Gaschem Jade

Last reported at 2014-Sep-01 19:33 UTC. Time now 2014-Sep-01 23:48 UTC.
Position N 36°57' E 002°48'.

Length 113.2 m; beam 15.9 m; draft 6.1 m.

Type: Ship. MMSI: 636090168.

Date/timePositionNaut miles runAvg speedWind from/ knotsBaromVisibWave heightAir tempDewpointWater temp
2014-Sep-01 19:33N 36°57' E 002°48'25011.8
2014-Aug-31 22:25N 37°16' E 008°00'4611.9
2014-Aug-31 18:33N 37°23' E 008°57'3811.5
2014-Aug-31 15:13N 37°34' E 009°43'811.6
2014-Aug-31 14:33N 37°36' E 009°52'1211.7
2014-Aug-31 13:33N 37°38' E 010°07'1111.1
2014-Aug-31 12:33N 37°33' E 010°19'1212.3
2014-Aug-31 11:33N 37°24' E 010°30'1111.5
2014-Aug-31 10:33N 37°13' E 010°32'  
2014-Aug-28 22:33N 37°21' E 009°03'1212.5
2014-Aug-28 21:33N 37°18' E 008°47'101 3.2
2014-Aug-27 13:33N 37°05' E 006°42'15611.9
2014-Aug-27 00:32N 37°07' E 003°27'1812.7
2014-Aug-26 23:08N 37°02' E 003°05'712.2
2014-Aug-26 22:33N 36°60' E 002°57'1312.6
2014-Aug-26 21:33N 36°56' E 002°42'1212.5
2014-Aug-26 20:33N 36°53' E 002°27'1313.3
2014-Aug-26 19:33N 36°50' E 002°11'2013.3
2014-Aug-26 18:04N 36°47' E 001°46'713.1
2014-Aug-26 17:33N 36°46' E 001°38'1313.0
2014-Aug-26 16:33N 36°44' E 001°22'5112.5
2014-Aug-26 12:29N 36°36' E 000°19'  

Dump ship's entire track history